createdAt,value
2018-07-04T00:01:52.065Z,68.60
2018-07-04T00:04:31.617Z,68.10
2018-07-04T00:07:11.287Z,68.40
2018-07-04T00:09:50.932Z,69.30
2018-07-04T00:12:30.610Z,70.40
2018-07-04T00:15:14.856Z,69.90
2018-07-04T00:17:54.611Z,69.60
2018-07-04T00:20:40.879Z,69.90
2018-07-04T00:23:20.493Z,69.80
2018-07-04T00:26:00.190Z,70.70
2018-07-04T00:28:39.781Z,70.50
2018-07-04T00:31:19.326Z,70.00
2018-07-04T00:33:59.014Z,70.80
2018-07-04T00:36:38.714Z,71.50
2018-07-04T00:39:18.334Z,70.90
2018-07-04T00:41:57.929Z,70.80
2018-07-04T00:44:37.644Z,70.10
2018-07-04T00:47:17.244Z,71.40
2018-07-04T00:49:56.688Z,71.20
2018-07-04T00:52:36.245Z,71.20
2018-07-04T00:55:15.818Z,71.50
2018-07-04T00:57:56.546Z,72.10
2018-07-04T01:00:36.040Z,71.40
2018-07-04T01:03:15.789Z,71.90
2018-07-04T01:05:55.434Z,71.80
2018-07-04T01:08:35.227Z,71.60
2018-07-04T01:11:14.972Z,71.00
2018-07-04T01:13:54.800Z,71.60
2018-07-04T01:16:34.539Z,70.90
2018-07-04T01:19:16.349Z,72.00
2018-07-04T01:21:55.975Z,72.00
2018-07-04T01:24:35.573Z,72.50
2018-07-04T01:27:15.234Z,72.20
2018-07-04T01:29:54.940Z,71.90
2018-07-04T01:32:34.633Z,72.10
2018-07-04T01:35:14.229Z,71.80
2018-07-04T01:37:53.981Z,71.90
2018-07-04T01:40:35.253Z,71.20
2018-07-04T01:43:14.885Z,72.30
2018-07-04T01:45:54.546Z,72.20
2018-07-04T01:48:34.252Z,72.10
2018-07-04T01:51:13.832Z,72.70
2018-07-04T01:53:53.390Z,73.40
2018-07-04T01:56:33.124Z,72.60
2018-07-04T01:59:12.795Z,72.10
2018-07-04T02:01:54.057Z,71.90
2018-07-04T02:04:33.925Z,72.20
2018-07-04T02:07:13.470Z,72.40
2018-07-04T02:09:53.429Z,73.00
2018-07-04T02:12:33.164Z,72.80
2018-07-04T02:15:12.790Z,72.90
2018-07-04T02:17:52.514Z,72.90
2018-07-04T02:20:32.238Z,73.30
2018-07-04T02:23:23.610Z,73.70
2018-07-04T02:26:03.305Z,72.60
2018-07-04T02:28:42.906Z,72.60
2018-07-04T02:31:22.820Z,73.20
2018-07-04T02:34:02.802Z,74.90
2018-07-04T02:36:42.628Z,74.60
2018-07-04T02:39:22.452Z,73.90
2018-07-04T02:42:02.217Z,74.60
2018-07-04T02:44:42.405Z,75.00
2018-07-04T02:47:27.694Z,76.10
2018-07-04T02:50:08.181Z,75.70
2018-07-04T02:52:48.450Z,74.90
2018-07-04T02:55:27.996Z,74.00
2018-07-04T02:58:08.719Z,74.40
2018-07-04T03:00:48.467Z,75.70
2018-07-04T03:03:27.976Z,75.40
2018-07-04T03:11:53.410Z,76.80
2018-07-04T03:14:33.143Z,76.30
2018-07-04T03:17:12.793Z,76.80
2018-07-04T03:19:52.473Z,77.10
2018-07-04T03:22:32.357Z,77.00
2018-07-04T03:25:12.046Z,77.00
2018-07-04T03:27:51.924Z,77.70
2018-07-04T03:30:31.790Z,76.80
2018-07-04T03:33:12.157Z,77.00
2018-07-04T03:35:51.593Z,76.80
2018-07-04T03:38:31.785Z,77.00
2018-07-04T03:41:11.634Z,77.40
2018-07-04T03:43:51.463Z,78.20
2018-07-04T03:46:31.157Z,78.50
2018-07-04T03:49:10.890Z,78.70
2018-07-04T03:51:50.809Z,78.10
2018-07-04T03:54:33.904Z,77.30
2018-07-04T03:57:13.598Z,77.10
2018-07-04T03:59:53.310Z,77.40
2018-07-04T04:02:32.809Z,78.20
2018-07-04T04:05:12.265Z,78.20
2018-07-04T04:07:51.854Z,77.70
2018-07-04T04:10:31.608Z,77.20
2018-07-04T04:13:11.187Z,78.10
2018-07-04T04:18:45.480Z,77.90
2018-07-04T04:21:25.044Z,78.10
2018-07-04T04:24:04.640Z,78.70
2018-07-04T04:26:44.252Z,79.30
2018-07-04T04:29:24.113Z,79.00
2018-07-04T04:32:03.876Z,77.90
2018-07-04T04:34:43.425Z,78.40
2018-07-04T04:37:23.043Z,78.80
2018-07-04T04:40:06.027Z,78.20
2018-07-04T04:42:45.507Z,78.10
2018-07-04T04:45:25.134Z,78.30
2018-07-04T04:48:04.833Z,78.70
2018-07-04T04:50:44.453Z,78.50
2018-07-04T04:53:24.170Z,78.50
2018-07-04T04:56:03.786Z,78.10
2018-07-04T04:58:43.477Z,78.70
2018-07-04T05:01:30.419Z,78.80
2018-07-04T05:04:10.049Z,78.10
2018-07-04T05:06:49.644Z,77.90
2018-07-04T05:09:29.218Z,77.90
2018-07-04T05:12:08.861Z,78.00
2018-07-04T05:14:48.554Z,78.20
2018-07-04T05:17:28.339Z,77.90
2018-07-04T05:25:38.846Z,77.30
2018-07-04T05:28:18.343Z,77.90
2018-07-04T05:30:58.019Z,77.60
2018-07-04T05:33:37.668Z,78.20
2018-07-04T05:36:17.374Z,78.60
2018-07-04T05:38:56.977Z,77.90
2018-07-04T05:41:36.679Z,78.10
2018-07-04T05:44:16.422Z,78.50
2018-07-04T05:49:49.356Z,78.50
2018-07-04T05:52:29.030Z,77.00
2018-07-04T05:55:08.860Z,76.90
2018-07-04T05:57:48.503Z,77.10
2018-07-04T06:00:28.202Z,76.60
2018-07-04T06:03:07.732Z,76.70
2018-07-04T06:05:47.497Z,75.50
2018-07-04T06:08:27.124Z,75.20
2018-07-04T06:11:06.850Z,74.90
2018-07-04T06:13:46.511Z,75.20
2018-07-04T06:16:26.128Z,74.60
2018-07-04T06:19:05.610Z,75.80
2018-07-04T06:21:45.212Z,72.90
2018-07-04T06:24:24.834Z,71.50
2018-07-04T06:27:04.539Z,71.60
2018-07-04T06:29:44.259Z,69.60
2018-07-04T06:35:18.882Z,70.80
2018-07-04T06:37:46.162Z,71.70
2018-07-04T06:40:13.483Z,68.60
2018-07-04T06:42:40.763Z,69.60
2018-07-04T06:45:08.051Z,68.10
2018-07-04T06:47:35.453Z,66.50
2018-07-04T06:50:02.742Z,66.00
2018-07-04T06:52:30.101Z,65.50
2018-07-04T06:54:57.595Z,65.60
2018-07-04T06:57:32.155Z,65.30
2018-07-04T06:59:59.465Z,63.80
2018-07-04T07:02:26.769Z,63.40
2018-07-04T07:05:06.322Z,62.30
2018-07-04T07:07:45.951Z,59.90
2018-07-04T07:10:25.536Z,61.30
2018-07-04T07:13:05.043Z,62.70
2018-07-04T07:15:44.581Z,61.80
2018-07-04T07:18:25.399Z,59.60
2018-07-04T07:21:05.120Z,57.70
2018-07-04T07:23:44.739Z,58.60
2018-07-04T07:26:24.372Z,58.00
2018-07-04T07:29:04.011Z,60.70
2018-07-04T07:31:43.831Z,57.90
2018-07-04T07:34:23.338Z,60.90
2018-07-04T07:37:03.006Z,62.30
2018-07-04T07:39:42.981Z,62.70
2018-07-04T07:42:22.554Z,64.20
2018-07-04T07:45:02.015Z,63.40
2018-07-04T07:50:15.273Z,65.40
2018-07-04T07:52:54.883Z,66.10
2018-07-04T07:55:34.628Z,65.10
2018-07-04T07:58:14.219Z,66.20
2018-07-04T08:00:53.740Z,63.10
2018-07-04T08:03:33.312Z,57.90
2018-07-04T08:06:12.843Z,54.80
2018-07-04T08:08:52.464Z,57.50
2018-07-04T08:11:32.253Z,58.60
2018-07-04T08:14:12.030Z,61.40
2018-07-04T08:16:51.838Z,61.10
2018-07-04T08:22:05.732Z,57.40
2018-07-04T08:24:45.408Z,55.60
2018-07-04T08:27:24.961Z,52.70
2018-07-04T08:30:04.758Z,54.50
2018-07-04T08:32:44.304Z,59.10
2018-07-04T08:35:23.863Z,56.80
2018-07-04T08:38:03.489Z,55.10
2018-07-04T08:40:43.050Z,54.40
2018-07-04T08:43:27.100Z,56.80
2018-07-04T08:46:06.655Z,56.90
2018-07-04T08:48:46.304Z,57.60
2018-07-04T08:51:25.895Z,58.60
2018-07-04T08:54:05.548Z,60.00
2018-07-04T08:56:45.036Z,59.00
2018-07-04T08:59:24.540Z,57.20
2018-07-04T09:02:04.151Z,53.60
2018-07-04T09:04:43.950Z,49.80
2018-07-04T09:07:23.644Z,48.90
2018-07-04T09:10:03.580Z,49.00
2018-07-04T09:12:43.185Z,48.10
2018-07-04T09:15:22.987Z,49.90
2018-07-04T09:18:02.451Z,51.30
2018-07-04T09:20:42.060Z,52.00
2018-07-04T09:23:21.803Z,51.50
2018-07-04T09:26:05.056Z,50.90
2018-07-04T09:28:44.613Z,49.20
2018-07-04T09:31:24.206Z,48.20
2018-07-04T09:34:03.740Z,47.90
2018-07-04T09:36:43.577Z,46.20
2018-07-04T09:39:23.152Z,45.60
2018-07-04T09:42:02.878Z,45.70
2018-07-04T09:44:42.657Z,46.40
2018-07-04T09:47:22.536Z,47.30
2018-07-04T09:50:02.103Z,48.60
2018-07-04T09:52:41.920Z,48.10
2018-07-04T09:55:21.576Z,46.70
2018-07-04T09:58:01.357Z,51.00
2018-07-04T10:00:46.410Z,49.80
2018-07-04T10:03:26.115Z,46.90
2018-07-04T10:06:05.766Z,47.00
2018-07-04T10:08:48.575Z,48.30
2018-07-04T10:11:28.260Z,46.70
2018-07-04T10:14:08.072Z,46.00
2018-07-04T10:16:47.703Z,46.70
2018-07-04T10:19:27.222Z,46.60
2018-07-04T10:22:06.846Z,49.40
2018-07-04T10:24:46.557Z,49.50
2018-07-04T10:27:26.273Z,47.20
2018-07-04T10:30:08.290Z,47.90
2018-07-04T10:32:47.941Z,48.20
2018-07-04T10:35:27.672Z,45.60
2018-07-04T10:38:07.165Z,47.00
2018-07-04T10:40:46.968Z,46.30
2018-07-04T10:43:26.689Z,46.00
2018-07-04T10:46:06.385Z,45.70
2018-07-04T10:48:46.041Z,44.20
2018-07-04T10:57:12.392Z,43.70
2018-07-04T10:59:51.940Z,43.50
2018-07-04T11:02:32.199Z,42.40
2018-07-04T11:05:11.950Z,42.90
2018-07-04T11:10:25.298Z,43.00
2018-07-04T11:13:05.013Z,43.70
2018-07-04T11:15:44.537Z,42.40
2018-07-04T11:21:19.158Z,40.50
2018-07-04T11:23:58.710Z,41.60
2018-07-04T11:26:38.388Z,42.50
2018-07-04T11:29:17.977Z,41.70
2018-07-04T11:31:57.655Z,39.90
2018-07-04T11:34:37.316Z,38.20
2018-07-04T11:37:16.803Z,39.50
2018-07-04T11:39:56.514Z,38.30
2018-07-04T11:51:23.875Z,42.60
2018-07-04T11:53:51.185Z,41.20
2018-07-04T11:56:18.491Z,38.80
2018-07-04T11:58:45.810Z,41.20
2018-07-04T12:01:13.390Z,39.50
2018-07-04T12:03:53.124Z,38.20
2018-07-04T12:06:32.757Z,38.20
2018-07-04T12:09:00.044Z,40.10
2018-07-04T12:14:30.953Z,38.20
2018-07-04T12:16:58.731Z,38.60
2018-07-04T12:19:26.430Z,40.20
2018-07-04T12:21:53.775Z,39.50
2018-07-04T12:26:48.649Z,37.60
2018-07-04T12:29:15.916Z,37.60
2018-07-04T12:31:43.288Z,38.00
2018-07-04T12:34:10.687Z,37.30
2018-07-04T12:36:41.093Z,37.80
2018-07-04T12:39:08.346Z,38.30
2018-07-04T12:41:35.659Z,36.60
2018-07-04T12:44:02.945Z,38.50
2018-07-04T12:46:30.255Z,38.00
2018-07-04T12:49:03.730Z,36.30
2018-07-04T12:51:32.478Z,38.20
2018-07-04T12:54:05.099Z,39.80
2018-07-04T12:59:36.562Z,38.50
2018-07-04T13:02:16.293Z,40.40
2018-07-04T13:04:55.979Z,39.30
2018-07-04T13:07:35.864Z,38.00
2018-07-04T13:10:15.532Z,37.70
2018-07-04T13:12:55.387Z,38.20
2018-07-04T13:15:34.973Z,40.10
2018-07-04T13:18:14.501Z,38.10
2018-07-04T13:20:54.381Z,37.80
2018-07-04T13:23:34.031Z,38.10
2018-07-04T13:26:13.676Z,37.50
2018-07-04T13:31:26.825Z,37.80
2018-07-04T13:34:06.350Z,38.50
2018-07-04T13:36:45.991Z,38.30
2018-07-04T13:39:25.612Z,38.30
2018-07-04T13:45:05.702Z,39.50
2018-07-04T13:47:45.561Z,38.90
2018-07-04T13:50:25.581Z,38.30
2018-07-04T13:53:05.210Z,39.70
2018-07-04T13:55:44.799Z,40.60
2018-07-04T13:58:24.531Z,40.20
2018-07-04T14:01:04.196Z,41.00
2018-07-04T14:03:44.078Z,41.90
2018-07-04T14:06:31.012Z,40.90
2018-07-04T14:09:10.886Z,41.60
2018-07-04T14:11:50.599Z,39.80
2018-07-04T14:14:30.255Z,42.00
2018-07-04T14:17:09.907Z,41.70
2018-07-04T14:19:49.514Z,41.50
2018-07-04T14:22:29.148Z,43.10
2018-07-04T14:25:08.705Z,43.10
2018-07-04T14:27:50.039Z,43.20
2018-07-04T14:30:29.835Z,43.10
2018-07-04T14:33:09.447Z,45.10
2018-07-04T14:35:49.175Z,45.30
2018-07-04T14:41:02.184Z,43.50
2018-07-04T14:43:41.773Z,44.20
2018-07-04T14:46:21.399Z,44.00
2018-07-04T14:49:03.927Z,42.80
2018-07-04T14:51:43.499Z,44.90
2018-07-04T14:54:23.094Z,45.10
2018-07-04T14:57:02.976Z,44.10
2018-07-04T14:59:42.631Z,42.50
2018-07-04T15:02:22.389Z,41.70
2018-07-04T15:05:02.149Z,42.60
2018-07-04T15:07:41.790Z,42.30
2018-07-04T15:13:14.669Z,41.80
2018-07-04T15:15:54.416Z,42.30
2018-07-04T15:18:33.957Z,42.40
2018-07-04T15:23:47.321Z,42.70
2018-07-04T15:26:26.939Z,43.80
2018-07-04T15:29:06.628Z,44.90
2018-07-04T15:31:46.369Z,46.30
2018-07-04T15:37:20.660Z,46.00
2018-07-04T15:40:00.375Z,47.00
2018-07-04T15:42:40.165Z,45.70
2018-07-04T15:45:19.886Z,46.00
2018-07-04T15:47:59.616Z,47.60
2018-07-04T15:50:39.194Z,48.60
2018-07-04T15:53:18.935Z,47.50
2018-07-04T15:55:58.592Z,48.80
2018-07-04T16:01:32.889Z,49.40
2018-07-04T16:04:12.664Z,49.50
2018-07-04T16:06:52.470Z,48.60
2018-07-04T16:09:32.233Z,49.00
2018-07-04T16:12:11.761Z,48.60
2018-07-04T16:14:51.379Z,48.70
2018-07-04T16:17:31.006Z,48.90
2018-07-04T16:20:10.576Z,49.10
2018-07-04T16:34:21.754Z,50.50
2018-07-04T16:37:01.434Z,50.20
2018-07-04T16:39:40.953Z,50.10
2018-07-04T16:42:21.223Z,49.70
2018-07-04T16:45:01.026Z,50.20
2018-07-04T16:47:40.569Z,50.40
2018-07-04T16:50:20.311Z,50.10
2018-07-04T16:52:59.808Z,50.00
2018-07-04T16:55:40.539Z,49.60
2018-07-04T16:58:20.156Z,49.40
2018-07-04T17:00:59.766Z,49.70
2018-07-04T17:03:39.574Z,50.20
2018-07-04T17:06:19.175Z,50.20
2018-07-04T17:08:58.840Z,50.10
2018-07-04T17:11:38.537Z,49.60
2018-07-04T17:14:18.218Z,49.60
2018-07-04T17:19:39.897Z,49.80
2018-07-04T17:22:19.523Z,49.50
2018-07-04T17:24:59.598Z,49.40
2018-07-04T17:27:39.153Z,49.40
2018-07-04T17:30:19.304Z,48.50
2018-07-04T17:32:59.465Z,48.40
2018-07-04T17:41:13.755Z,47.60
2018-07-04T17:43:53.436Z,48.00
2018-07-04T17:46:33.249Z,46.40
2018-07-04T17:49:12.943Z,46.70
2018-07-04T17:51:52.605Z,47.30
2018-07-04T17:54:32.156Z,47.40
2018-07-04T17:57:11.588Z,47.00
2018-07-04T17:59:51.173Z,46.90
2018-07-04T18:02:30.808Z,47.30
2018-07-04T18:05:10.358Z,47.10
2018-07-04T18:07:49.806Z,46.60
2018-07-04T18:10:30.406Z,46.90
2018-07-04T18:13:10.170Z,47.20
2018-07-04T18:15:49.940Z,47.10
2018-07-04T18:18:29.601Z,47.50
2018-07-04T18:21:14.561Z,47.50
2018-07-04T18:23:57.584Z,47.60
2018-07-04T18:26:37.208Z,48.00
2018-07-04T18:29:16.697Z,48.30
2018-07-04T18:31:56.296Z,47.70
2018-07-04T18:34:35.991Z,47.80
2018-07-04T18:37:15.778Z,48.20
2018-07-04T18:39:55.509Z,48.70
2018-07-04T18:42:35.151Z,48.60
2018-07-04T18:45:20.446Z,48.90
2018-07-04T18:48:00.212Z,49.10
2018-07-04T18:50:39.828Z,49.60
2018-07-04T18:53:19.651Z,50.10
2018-07-04T18:55:59.453Z,50.10
2018-07-04T18:58:39.244Z,50.40
2018-07-04T19:01:18.825Z,50.80
2018-07-04T19:03:58.434Z,50.80
2018-07-04T19:06:39.134Z,50.70
2018-07-04T19:09:18.837Z,50.60
2018-07-04T19:11:58.666Z,50.70
2018-07-04T19:14:38.422Z,50.60
2018-07-04T19:17:18.205Z,51.00
2018-07-04T19:19:57.704Z,51.50
2018-07-04T19:22:37.274Z,51.60
2018-07-04T19:25:16.783Z,51.70
2018-07-04T19:27:58.204Z,52.90
2018-07-04T19:30:37.864Z,53.70
2018-07-04T19:33:17.669Z,53.60
2018-07-04T19:35:57.044Z,53.70
2018-07-04T19:38:36.595Z,54.20
2018-07-04T19:41:16.163Z,54.40
2018-07-04T19:43:55.766Z,54.90
2018-07-04T19:46:35.519Z,55.10
2018-07-04T19:49:17.107Z,55.50
2018-07-04T19:51:56.813Z,55.00
2018-07-04T19:54:36.287Z,55.30
2018-07-04T19:57:15.799Z,55.70
2018-07-04T19:59:55.472Z,55.70
2018-07-04T20:02:35.189Z,56.30
2018-07-04T20:05:14.684Z,56.50
2018-07-04T20:07:54.246Z,56.90
2018-07-04T20:10:36.397Z,56.60
2018-07-04T20:13:16.151Z,56.10
2018-07-04T20:15:55.809Z,56.30
2018-07-04T20:18:35.508Z,56.30
2018-07-04T20:21:15.167Z,56.30
2018-07-04T20:23:54.694Z,57.10
2018-07-04T20:26:34.236Z,56.60
2018-07-04T20:31:54.828Z,57.00
2018-07-04T20:34:34.430Z,56.60
2018-07-04T20:37:13.972Z,57.30
2018-07-04T20:39:53.625Z,58.00
2018-07-04T20:42:33.312Z,57.80
2018-07-04T20:45:13.609Z,58.40
2018-07-04T20:47:53.298Z,58.80
2018-07-04T20:50:32.845Z,59.00
2018-07-04T20:59:00.951Z,58.50
2018-07-04T21:01:40.569Z,58.70
2018-07-04T21:04:20.072Z,57.90
2018-07-04T21:06:59.682Z,57.10
2018-07-04T21:09:39.270Z,56.10
2018-07-04T21:12:18.852Z,56.50
2018-07-04T21:14:58.496Z,56.20
2018-07-04T21:17:38.268Z,54.30
2018-07-04T21:20:21.837Z,54.30
2018-07-04T21:23:01.369Z,53.60
2018-07-04T21:25:40.896Z,53.60
2018-07-04T21:28:20.462Z,53.90
2018-07-04T21:31:00.073Z,53.70
2018-07-04T21:33:39.793Z,53.50
2018-07-04T21:36:19.660Z,53.60
2018-07-04T21:38:59.369Z,53.80
2018-07-04T21:41:42.560Z,53.40
2018-07-04T21:44:22.170Z,53.90
2018-07-04T21:47:01.820Z,54.10
2018-07-04T21:52:15.033Z,53.80
2018-07-04T21:54:54.656Z,54.40
2018-07-04T21:57:34.185Z,55.30
2018-07-04T22:00:18.030Z,55.70
2018-07-04T22:05:54.437Z,58.10
2018-07-04T22:11:08.027Z,59.20
2018-07-04T22:13:47.688Z,59.20
2018-07-04T22:16:27.451Z,60.00
2018-07-04T22:19:07.102Z,60.00
2018-07-04T22:21:46.690Z,60.00
2018-07-04T22:24:26.358Z,59.50
2018-07-04T22:30:00.487Z,59.80
2018-07-04T22:32:40.059Z,60.90
2018-07-04T22:35:19.757Z,61.40
2018-07-04T22:37:59.321Z,61.20
2018-07-04T22:40:38.870Z,61.60
2018-07-04T22:43:18.502Z,62.10
2018-07-04T22:45:58.212Z,61.20
2018-07-04T22:48:37.917Z,62.50
2018-07-04T22:51:17.608Z,63.00
2018-07-04T22:53:57.357Z,63.40
2018-07-04T22:56:36.846Z,63.50
2018-07-04T22:59:16.496Z,63.00
2018-07-04T23:01:56.024Z,64.00
2018-07-04T23:04:35.627Z,64.20
2018-07-04T23:07:15.244Z,63.70
2018-07-04T23:12:28.946Z,64.80
2018-07-04T23:15:08.530Z,65.30
2018-07-04T23:17:48.100Z,66.30
2018-07-04T23:20:27.681Z,67.00
2018-07-04T23:23:07.373Z,66.70
2018-07-04T23:28:20.690Z,67.30
2018-07-04T23:31:00.301Z,67.00
2018-07-04T23:33:41.852Z,67.70
2018-07-04T23:36:21.383Z,67.50
2018-07-04T23:39:01.144Z,67.40
2018-07-04T23:41:40.847Z,67.60
2018-07-04T23:44:20.540Z,67.80
2018-07-04T23:47:00.248Z,68.00
2018-07-04T23:52:13.390Z,67.50
2018-07-04T23:57:49.936Z,67.70
